<?xml version="1.0" encoding="UTF-8" standalone="no" ?>
<gpx xmlns="http://www.topografix.com/GPX/1/1" xmlns:xsi="http://www.w3.org/2001/XMLSchema-instance" xsi:schemaLocation="http://www.topografix.com/GPX/1/1 http://www.topografix.com/GPX/1/1/gpx.xsd" version="1.1" creator="VisuGPX - https://www.visugpx.com">
  <metadata>
    <name>La Bourgeat Noir-Col de Moretan (Isère)</name>
    <desc><![CDATA[Projet de randonnée assez difficile avec le Caf Grenoble Isère]]></desc>
  </metadata>
  <trk>
    <name><![CDATA[Le Bourgeat Noir-Col de Moretan - AD+]]></name>
    <cmt><![CDATA[Carte IGN TOP25 : 3433OT - Allevard/Belledonne Nord]]></cmt>
    <desc><![CDATA[Projet de randonnée assez difficile avec le Caf Grenoble Isère]]></desc>
    <trkseg>
      <trkpt lat="45.33549" lon="6.11965">
        <ele>1100</ele>
        <time>2021-06-24T07:12:07.869Z</time>
      </trkpt>
      <trkpt lat="45.33541" lon="6.11957">
        <ele>1097</ele>
        <time>2021-06-24T07:12:19.507Z</time>
      </trkpt>
      <trkpt lat="45.33526" lon="6.11966">
        <ele>1098</ele>
        <time>2021-06-24T07:12:37.329Z</time>
      </trkpt>
      <trkpt lat="45.33507" lon="6.11989">
        <ele>1098</ele>
        <time>2021-06-24T07:13:08.420Z</time>
      </trkpt>
      <trkpt lat="45.33491" lon="6.12026">
        <ele>1102</ele>
        <time>2021-06-24T07:13:45.847Z</time>
      </trkpt>
      <trkpt lat="45.33475" lon="6.12019">
        <ele>1102</ele>
        <time>2021-06-24T07:14:06.332Z</time>
      </trkpt>
      <trkpt lat="45.3346" lon="6.11985">
        <ele>1102</ele>
        <time>2021-06-24T07:14:37.456Z</time>
      </trkpt>
      <trkpt lat="45.33439" lon="6.11985">
        <ele>1102</ele>
        <time>2021-06-24T07:15:00.993Z</time>
      </trkpt>
      <trkpt lat="45.33313" lon="6.12061">
        <ele>1102</ele>
        <time>2021-06-24T07:17:48.626Z</time>
      </trkpt>
      <trkpt lat="45.3322" lon="6.12141">
        <ele>1116</ele>
        <time>2021-06-24T07:20:11.395Z</time>
      </trkpt>
      <trkpt lat="45.33177" lon="6.12147">
        <ele>1117</ele>
        <time>2021-06-24T07:21:01.371Z</time>
      </trkpt>
      <trkpt lat="45.33146" lon="6.12144">
        <ele>1117</ele>
        <time>2021-06-24T07:21:37.409Z</time>
      </trkpt>
      <trkpt lat="45.33125" lon="6.12163">
        <ele>1119</ele>
        <time>2021-06-24T07:22:09.584Z</time>
      </trkpt>
      <trkpt lat="45.33112" lon="6.12154">
        <ele>1120</ele>
        <time>2021-06-24T07:22:29.506Z</time>
      </trkpt>
      <trkpt lat="45.33097" lon="6.12157">
        <ele>1122</ele>
        <time>2021-06-24T07:22:52.884Z</time>
      </trkpt>
      <trkpt lat="45.33075" lon="6.12155">
        <ele>1125</ele>
        <time>2021-06-24T07:23:28.811Z</time>
      </trkpt>
      <trkpt lat="45.33025" lon="6.12178">
        <ele>1134</ele>
        <time>2021-06-24T07:25:03.542Z</time>
      </trkpt>
      <trkpt lat="45.32959" lon="6.12255">
        <ele>1151</ele>
        <time>2021-06-24T07:27:46.666Z</time>
      </trkpt>
      <trkpt lat="45.32907" lon="6.12304">
        <ele>1164</ele>
        <time>2021-06-24T07:29:49.732Z</time>
      </trkpt>
      <trkpt lat="45.32857" lon="6.12385">
        <ele>1181</ele>
        <time>2021-06-24T07:32:13.674Z</time>
      </trkpt>
      <trkpt lat="45.32793" lon="6.12393">
        <ele>1193</ele>
        <time>2021-06-24T07:34:15.865Z</time>
      </trkpt>
      <trkpt lat="45.32783" lon="6.12409">
        <ele>1197</ele>
        <time>2021-06-24T07:34:44.336Z</time>
      </trkpt>
      <trkpt lat="45.32748" lon="6.12419">
        <ele>1204</ele>
        <time>2021-06-24T07:35:54.497Z</time>
      </trkpt>
      <trkpt lat="45.32701" lon="6.12458">
        <ele>1217</ele>
        <time>2021-06-24T07:37:46.885Z</time>
      </trkpt>
      <trkpt lat="45.3269" lon="6.12488">
        <ele>1222</ele>
        <time>2021-06-24T07:38:34.356Z</time>
      </trkpt>
      <trkpt lat="45.32675" lon="6.12508">
        <ele>1227</ele>
        <time>2021-06-24T07:39:15.420Z</time>
      </trkpt>
      <trkpt lat="45.32652" lon="6.12516">
        <ele>1232</ele>
        <time>2021-06-24T07:40:05.267Z</time>
      </trkpt>
      <trkpt lat="45.32613" lon="6.12536">
        <ele>1242</ele>
        <time>2021-06-24T07:41:32.872Z</time>
      </trkpt>
      <trkpt lat="45.32605" lon="6.12554">
        <ele>1246</ele>
        <time>2021-06-24T07:42:07.075Z</time>
      </trkpt>
      <trkpt lat="45.32593" lon="6.12554">
        <ele>1248</ele>
        <time>2021-06-24T07:42:32.785Z</time>
      </trkpt>
      <trkpt lat="45.32585" lon="6.12561">
        <ele>1251</ele>
        <time>2021-06-24T07:42:54.310Z</time>
      </trkpt>
      <trkpt lat="45.3257" lon="6.12561">
        <ele>1255</ele>
        <time>2021-06-24T07:43:29.395Z</time>
      </trkpt>
      <trkpt lat="45.32565" lon="6.12575">
        <ele>1257</ele>
        <time>2021-06-24T07:43:54.513Z</time>
      </trkpt>
      <trkpt lat="45.32549" lon="6.12592">
        <ele>1263</ele>
        <time>2021-06-24T07:44:36.706Z</time>
      </trkpt>
      <trkpt lat="45.32532" lon="6.1259">
        <ele>1266</ele>
        <time>2021-06-24T07:45:15.855Z</time>
      </trkpt>
      <trkpt lat="45.32523" lon="6.12609">
        <ele>1270</ele>
        <time>2021-06-24T07:45:51.937Z</time>
      </trkpt>
      <trkpt lat="45.32501" lon="6.12617">
        <ele>1277</ele>
        <time>2021-06-24T07:46:48.016Z</time>
      </trkpt>
      <trkpt lat="45.32502" lon="6.12635">
        <ele>1279</ele>
        <time>2021-06-24T07:47:19.320Z</time>
      </trkpt>
      <trkpt lat="45.3248" lon="6.12648">
        <ele>1286</ele>
        <time>2021-06-24T07:48:15.340Z</time>
      </trkpt>
      <trkpt lat="45.3244" lon="6.12655">
        <ele>1296</ele>
        <time>2021-06-24T07:49:36.944Z</time>
      </trkpt>
      <trkpt lat="45.32387" lon="6.12641">
        <ele>1307</ele>
        <time>2021-06-24T07:51:28.492Z</time>
      </trkpt>
      <trkpt lat="45.32341" lon="6.12644">
        <ele>1319</ele>
        <time>2021-06-24T07:53:32.719Z</time>
      </trkpt>
      <trkpt lat="45.32297" lon="6.12678">
        <ele>1336</ele>
        <time>2021-06-24T07:55:57.705Z</time>
      </trkpt>
      <trkpt lat="45.32224" lon="6.12775">
        <ele>1367</ele>
        <time>2021-06-24T07:59:59.957Z</time>
      </trkpt>
      <trkpt lat="45.32178" lon="6.12795">
        <ele>1376</ele>
        <time>2021-06-24T08:01:57.985Z</time>
      </trkpt>
      <trkpt lat="45.32152" lon="6.12823">
        <ele>1389</ele>
        <time>2021-06-24T08:03:56.754Z</time>
      </trkpt>
      <trkpt lat="45.32159" lon="6.12867">
        <ele>1402</ele>
        <time>2021-06-24T08:05:16.561Z</time>
      </trkpt>
      <trkpt lat="45.32077" lon="6.12885">
        <ele>1421</ele>
        <time>2021-06-24T08:08:01.850Z</time>
      </trkpt>
      <trkpt lat="45.32004" lon="6.12934">
        <ele>1438</ele>
        <time>2021-06-24T08:11:02.170Z</time>
      </trkpt>
      <trkpt lat="45.31969" lon="6.13079">
        <ele>1468</ele>
        <time>2021-06-24T08:17:58.828Z</time>
      </trkpt>
      <trkpt lat="45.31949" lon="6.13215">
        <ele>1526</ele>
        <time>2021-06-24T08:24:23.329Z</time>
      </trkpt>
      <trkpt lat="45.31953" lon="6.13236">
        <ele>1534</ele>
        <time>2021-06-24T08:25:24.154Z</time>
      </trkpt>
      <trkpt lat="45.32017" lon="6.13283">
        <ele>1549</ele>
        <time>2021-06-24T08:28:39.002Z</time>
      </trkpt>
      <trkpt lat="45.32016" lon="6.13294">
        <ele>1553</ele>
        <time>2021-06-24T08:28:58.983Z</time>
      </trkpt>
      <trkpt lat="45.32001" lon="6.13313">
        <ele>1564</ele>
        <time>2021-06-24T08:30:29.103Z</time>
      </trkpt>
      <trkpt lat="45.32013" lon="6.13316">
        <ele>1566</ele>
        <time>2021-06-24T08:31:18.529Z</time>
      </trkpt>
      <trkpt lat="45.32005" lon="6.13332">
        <ele>1576</ele>
        <time>2021-06-24T08:32:28.340Z</time>
      </trkpt>
      <trkpt lat="45.32014" lon="6.13346">
        <ele>1580</ele>
        <time>2021-06-24T08:33:07.903Z</time>
      </trkpt>
      <trkpt lat="45.32013" lon="6.13359">
        <ele>1591</ele>
        <time>2021-06-24T08:33:28.730Z</time>
      </trkpt>
      <trkpt lat="45.31951" lon="6.13342">
        <ele>1598</ele>
        <time>2021-06-24T08:35:12.071Z</time>
      </trkpt>
      <trkpt lat="45.3185" lon="6.13338">
        <ele>1617</ele>
        <time>2021-06-24T08:38:33.518Z</time>
      </trkpt>
      <trkpt lat="45.31842" lon="6.1333">
        <ele>1619</ele>
        <time>2021-06-24T08:38:53.730Z</time>
      </trkpt>
      <trkpt lat="45.31817" lon="6.13328">
        <ele>1628</ele>
        <time>2021-06-24T08:39:34.072Z</time>
      </trkpt>
      <trkpt lat="45.31786" lon="6.13269">
        <ele>1631</ele>
        <time>2021-06-24T08:40:35.790Z</time>
      </trkpt>
      <trkpt lat="45.31741" lon="6.13244">
        <ele>1632</ele>
        <time>2021-06-24T08:41:36.552Z</time>
      </trkpt>
      <trkpt lat="45.31744" lon="6.13228">
        <ele>1636</ele>
        <time>2021-06-24T08:41:55.991Z</time>
      </trkpt>
      <trkpt lat="45.31729" lon="6.1321">
        <ele>1636</ele>
        <time>2021-06-24T08:42:31.725Z</time>
      </trkpt>
      <trkpt lat="45.31605" lon="6.13193">
        <ele>1663</ele>
        <time>2021-06-24T08:45:59.671Z</time>
      </trkpt>
      <trkpt lat="45.31601" lon="6.13185">
        <ele>1663</ele>
        <time>2021-06-24T08:46:11.261Z</time>
      </trkpt>
      <trkpt lat="45.31566" lon="6.13183">
        <ele>1663</ele>
        <time>2021-06-24T08:46:50.752Z</time>
      </trkpt>
      <trkpt lat="45.31569" lon="6.13149">
        <ele>1662</ele>
        <time>2021-06-24T08:47:18.130Z</time>
      </trkpt>
      <trkpt lat="45.31582" lon="6.13136">
        <ele>1662</ele>
        <time>2021-06-24T08:47:38.837Z</time>
      </trkpt>
      <trkpt lat="45.31588" lon="6.13122">
        <ele>1662</ele>
        <time>2021-06-24T08:47:58.166Z</time>
      </trkpt>
      <trkpt lat="45.31545" lon="6.13119">
        <ele>1673</ele>
        <time>2021-06-24T08:49:36.099Z</time>
      </trkpt>
      <trkpt lat="45.31497" lon="6.13188">
        <ele>1690</ele>
        <time>2021-06-24T08:52:05.408Z</time>
      </trkpt>
      <trkpt lat="45.31488" lon="6.13215">
        <ele>1695</ele>
        <time>2021-06-24T08:52:51.756Z</time>
      </trkpt>
      <trkpt lat="45.31486" lon="6.13252">
        <ele>1701</ele>
        <time>2021-06-24T08:54:03.754Z</time>
      </trkpt>
      <trkpt lat="45.3147" lon="6.13286">
        <ele>1712</ele>
        <time>2021-06-24T08:56:04.532Z</time>
      </trkpt>
      <trkpt lat="45.31463" lon="6.13283">
        <ele>1716</ele>
        <time>2021-06-24T08:56:32.858Z</time>
      </trkpt>
      <trkpt lat="45.31449" lon="6.13307">
        <ele>1728</ele>
        <time>2021-06-24T08:58:03.165Z</time>
      </trkpt>
      <trkpt lat="45.31442" lon="6.13303">
        <ele>1730</ele>
        <time>2021-06-24T08:58:33.140Z</time>
      </trkpt>
      <trkpt lat="45.31438" lon="6.13318">
        <ele>1737</ele>
        <time>2021-06-24T08:59:17.587Z</time>
      </trkpt>
      <trkpt lat="45.31391" lon="6.13318">
        <ele>1755</ele>
        <time>2021-06-24T09:01:50.960Z</time>
      </trkpt>
      <trkpt lat="45.31397" lon="6.13336">
        <ele>1760</ele>
        <time>2021-06-24T09:02:36.180Z</time>
      </trkpt>
      <trkpt lat="45.31373" lon="6.13343">
        <ele>1768</ele>
        <time>2021-06-24T09:03:51.228Z</time>
      </trkpt>
      <trkpt lat="45.31394" lon="6.13387">
        <ele>1781</ele>
        <time>2021-06-24T09:05:28.173Z</time>
      </trkpt>
      <trkpt lat="45.31362" lon="6.13385">
        <ele>1788</ele>
        <time>2021-06-24T09:07:34.226Z</time>
      </trkpt>
      <trkpt lat="45.31376" lon="6.1345">
        <ele>1816</ele>
        <time>2021-06-24T09:10:54.922Z</time>
      </trkpt>
      <trkpt lat="45.31408" lon="6.1349">
        <ele>1830</ele>
        <time>2021-06-24T09:12:28.404Z</time>
      </trkpt>
      <trkpt lat="45.31402" lon="6.135">
        <ele>1834</ele>
        <time>2021-06-24T09:12:48.305Z</time>
      </trkpt>
      <trkpt lat="45.31423" lon="6.13531">
        <ele>1836</ele>
        <time>2021-06-24T09:13:24.899Z</time>
      </trkpt>
      <trkpt lat="45.31417" lon="6.13549">
        <ele>1836</ele>
        <time>2021-06-24T09:13:48.629Z</time>
      </trkpt>
      <trkpt lat="45.31402" lon="6.13565">
        <ele>1837</ele>
        <time>2021-06-24T09:14:24.606Z</time>
      </trkpt>
      <trkpt lat="45.31368" lon="6.13593">
        <ele>1851</ele>
        <time>2021-06-24T09:16:51.384Z</time>
      </trkpt>
      <trkpt lat="45.31369" lon="6.1358">
        <ele>1851</ele>
        <time>2021-06-24T09:17:26.570Z</time>
      </trkpt>
      <trkpt lat="45.31337" lon="6.1359">
        <ele>1871</ele>
        <time>2021-06-24T09:20:22.901Z</time>
      </trkpt>
      <trkpt lat="45.31314" lon="6.13586">
        <ele>1884</ele>
        <time>2021-06-24T09:22:01.752Z</time>
      </trkpt>
      <trkpt lat="45.313" lon="6.13615">
        <ele>1894</ele>
        <time>2021-06-24T09:23:19.851Z</time>
      </trkpt>
      <trkpt lat="45.31296" lon="6.13594">
        <ele>1899</ele>
        <time>2021-06-24T09:24:05.989Z</time>
      </trkpt>
      <trkpt lat="45.31286" lon="6.13579">
        <ele>1903</ele>
        <time>2021-06-24T09:24:56.512Z</time>
      </trkpt>
      <trkpt lat="45.31273" lon="6.13573">
        <ele>1908</ele>
        <time>2021-06-24T09:25:41.169Z</time>
      </trkpt>
      <trkpt lat="45.31261" lon="6.13592">
        <ele>1917</ele>
        <time>2021-06-24T09:26:45.526Z</time>
      </trkpt>
      <trkpt lat="45.31252" lon="6.13581">
        <ele>1920</ele>
        <time>2021-06-24T09:27:27.743Z</time>
      </trkpt>
      <trkpt lat="45.31241" lon="6.13577">
        <ele>1925</ele>
        <time>2021-06-24T09:28:14.267Z</time>
      </trkpt>
      <trkpt lat="45.31233" lon="6.1355">
        <ele>1932</ele>
        <time>2021-06-24T09:29:24.439Z</time>
      </trkpt>
      <trkpt lat="45.31227" lon="6.13547">
        <ele>1940</ele>
        <time>2021-06-24T09:29:46.399Z</time>
      </trkpt>
      <trkpt lat="45.31214" lon="6.13589">
        <ele>1947</ele>
        <time>2021-06-24T09:31:20.667Z</time>
      </trkpt>
      <trkpt lat="45.31191" lon="6.13632">
        <ele>1963</ele>
        <time>2021-06-24T09:34:13.918Z</time>
      </trkpt>
      <trkpt lat="45.31134" lon="6.13679">
        <ele>1999</ele>
        <time>2021-06-24T09:39:23.496Z</time>
      </trkpt>
      <trkpt lat="45.3113" lon="6.1367">
        <ele>2003</ele>
        <time>2021-06-24T09:40:02.022Z</time>
      </trkpt>
      <trkpt lat="45.31122" lon="6.13674">
        <ele>2009</ele>
        <time>2021-06-24T09:40:48.175Z</time>
      </trkpt>
      <trkpt lat="45.31123" lon="6.13658">
        <ele>2012</ele>
        <time>2021-06-24T09:41:49.147Z</time>
      </trkpt>
      <trkpt lat="45.31099" lon="6.13649">
        <ele>2030</ele>
        <time>2021-06-24T09:43:41.028Z</time>
      </trkpt>
      <trkpt lat="45.31073" lon="6.13675">
        <ele>2041</ele>
        <time>2021-06-24T09:45:26.775Z</time>
      </trkpt>
      <trkpt lat="45.31059" lon="6.13665">
        <ele>2050</ele>
        <time>2021-06-24T09:46:28.278Z</time>
      </trkpt>
      <trkpt lat="45.31047" lon="6.13678">
        <ele>2053</ele>
        <time>2021-06-24T09:47:39.716Z</time>
      </trkpt>
      <trkpt lat="45.31037" lon="6.1367">
        <ele>2062</ele>
        <time>2021-06-24T09:48:36.029Z</time>
      </trkpt>
      <trkpt lat="45.31002" lon="6.13711">
        <ele>2088</ele>
        <time>2021-06-24T09:51:53.688Z</time>
      </trkpt>
      <trkpt lat="45.30993" lon="6.13737">
        <ele>2093</ele>
        <time>2021-06-24T09:53:32.451Z</time>
      </trkpt>
      <trkpt lat="45.3098" lon="6.1376">
        <ele>2104</ele>
        <time>2021-06-24T09:55:00.994Z</time>
      </trkpt>
      <trkpt lat="45.30967" lon="6.13772">
        <ele>2115</ele>
        <time>2021-06-24T09:56:01.773Z</time>
      </trkpt>
      <trkpt lat="45.30958" lon="6.138">
        <ele>2127</ele>
        <time>2021-06-24T09:57:17.696Z</time>
      </trkpt>
      <trkpt lat="45.30953" lon="6.13835">
        <ele>2128</ele>
        <time>2021-06-24T09:57:48.861Z</time>
      </trkpt>
      <trkpt lat="45.30948" lon="6.13835">
        <ele>2128</ele>
        <time>2021-06-24T09:57:55.318Z</time>
      </trkpt>
      <trkpt lat="45.30961" lon="6.13885">
        <ele>2132</ele>
        <time>2021-06-24T09:58:42.007Z</time>
      </trkpt>
      <trkpt lat="45.30962" lon="6.13918">
        <ele>2132</ele>
        <time>2021-06-24T09:59:08.238Z</time>
      </trkpt>
      <trkpt lat="45.30954" lon="6.13935">
        <ele>2132</ele>
        <time>2021-06-24T09:59:24.739Z</time>
      </trkpt>
      <trkpt lat="45.30945" lon="6.1401">
        <ele>2133</ele>
        <time>2021-06-24T10:00:29.838Z</time>
      </trkpt>
      <trkpt lat="45.30941" lon="6.14061">
        <ele>2137</ele>
        <time>2021-06-24T10:01:16.132Z</time>
      </trkpt>
      <trkpt lat="45.30979" lon="6.14202">
        <ele>2145</ele>
        <time>2021-06-24T10:03:30.728Z</time>
      </trkpt>
      <trkpt lat="45.3099" lon="6.14229">
        <ele>2145</ele>
        <time>2021-06-24T10:03:58.816Z</time>
      </trkpt>
      <trkpt lat="45.30993" lon="6.14269">
        <ele>2149</ele>
        <time>2021-06-24T10:04:48.079Z</time>
      </trkpt>
      <trkpt lat="45.31017" lon="6.14346">
        <ele>2160</ele>
        <time>2021-06-24T10:07:20.294Z</time>
      </trkpt>
      <trkpt lat="45.3102" lon="6.14382">
        <ele>2173</ele>
        <time>2021-06-24T10:09:15.539Z</time>
      </trkpt>
      <trkpt lat="45.31004" lon="6.1443">
        <ele>2192</ele>
        <time>2021-06-24T10:11:33.514Z</time>
      </trkpt>
      <trkpt lat="45.31012" lon="6.14437">
        <ele>2197</ele>
        <time>2021-06-24T10:12:08.990Z</time>
      </trkpt>
      <trkpt lat="45.31026" lon="6.14435">
        <ele>2198</ele>
        <time>2021-06-24T10:12:54.620Z</time>
      </trkpt>
      <trkpt lat="45.3104" lon="6.14449">
        <ele>2207</ele>
        <time>2021-06-24T10:13:56.405Z</time>
      </trkpt>
      <trkpt lat="45.31051" lon="6.14471">
        <ele>2213</ele>
        <time>2021-06-24T10:15:07.896Z</time>
      </trkpt>
      <trkpt lat="45.31069" lon="6.14568">
        <ele>2244</ele>
        <time>2021-06-24T10:18:37.438Z</time>
      </trkpt>
      <trkpt lat="45.31083" lon="6.14586">
        <ele>2248</ele>
        <time>2021-06-24T10:19:33.192Z</time>
      </trkpt>
      <trkpt lat="45.31115" lon="6.14605">
        <ele>2254</ele>
        <time>2021-06-24T10:20:58.594Z</time>
      </trkpt>
      <trkpt lat="45.31131" lon="6.14644">
        <ele>2266</ele>
        <time>2021-06-24T10:22:25.354Z</time>
      </trkpt>
      <trkpt lat="45.31155" lon="6.14671">
        <ele>2273</ele>
        <time>2021-06-24T10:23:54.852Z</time>
      </trkpt>
      <trkpt lat="45.31179" lon="6.14711">
        <ele>2288</ele>
        <time>2021-06-24T10:25:33.983Z</time>
      </trkpt>
      <trkpt lat="45.31203" lon="6.14729">
        <ele>2292</ele>
        <time>2021-06-24T10:26:28.624Z</time>
      </trkpt>
      <trkpt lat="45.31213" lon="6.14753">
        <ele>2299</ele>
        <time>2021-06-24T10:27:09.552Z</time>
      </trkpt>
      <trkpt lat="45.31231" lon="6.14859">
        <ele>2316</ele>
        <time>2021-06-24T10:30:11.288Z</time>
      </trkpt>
      <trkpt lat="45.31251" lon="6.14904">
        <ele>2329</ele>
        <time>2021-06-24T10:32:20.791Z</time>
      </trkpt>
      <trkpt lat="45.31263" lon="6.14947">
        <ele>2343</ele>
        <time>2021-06-24T10:34:06.237Z</time>
      </trkpt>
      <trkpt lat="45.31303" lon="6.14978">
        <ele>2357</ele>
        <time>2021-06-24T10:36:27.656Z</time>
      </trkpt>
      <trkpt lat="45.31319" lon="6.15004">
        <ele>2367</ele>
        <time>2021-06-24T10:38:06.716Z</time>
      </trkpt>
      <trkpt lat="45.31342" lon="6.15094">
        <ele>2399</ele>
        <time>2021-06-24T10:42:26.564Z</time>
      </trkpt>
      <trkpt lat="45.31371" lon="6.15128">
        <ele>2412</ele>
        <time>2021-06-24T10:44:41.935Z</time>
      </trkpt>
      <trkpt lat="45.31392" lon="6.15197">
        <ele>2435</ele>
        <time>2021-06-24T10:48:34.924Z</time>
      </trkpt>
      <trkpt lat="45.3141" lon="6.15324">
        <ele>2483</ele>
        <time>2021-06-24T10:53:50.669Z</time>
      </trkpt>
      <trkpt lat="45.31442" lon="6.1535">
        <ele>2484</ele>
        <time>2021-06-24T10:54:32.112Z</time>
      </trkpt>
      <trkpt lat="45.31454" lon="6.15394">
        <ele>2484</ele>
        <time>2021-06-24T10:55:09.063Z</time>
      </trkpt>
      <trkpt lat="45.31442" lon="6.1535">
        <ele>2484</ele>
        <time>2021-06-24T10:55:46.014Z</time>
      </trkpt>
      <trkpt lat="45.3141" lon="6.15324">
        <ele>2483</ele>
        <time>2021-06-24T10:57:15.482Z</time>
      </trkpt>
      <trkpt lat="45.31392" lon="6.15197">
        <ele>2435</ele>
        <time>2021-06-24T11:02:05.490Z</time>
      </trkpt>
      <trkpt lat="45.31371" lon="6.15128">
        <ele>2412</ele>
        <time>2021-06-24T11:04:20.225Z</time>
      </trkpt>
      <trkpt lat="45.31342" lon="6.15094">
        <ele>2399</ele>
        <time>2021-06-24T11:06:03.905Z</time>
      </trkpt>
      <trkpt lat="45.31319" lon="6.15004">
        <ele>2367</ele>
        <time>2021-06-24T11:09:23.148Z</time>
      </trkpt>
      <trkpt lat="45.31303" lon="6.14978">
        <ele>2357</ele>
        <time>2021-06-24T11:10:16.420Z</time>
      </trkpt>
      <trkpt lat="45.31263" lon="6.14947">
        <ele>2343</ele>
        <time>2021-06-24T11:12:01.101Z</time>
      </trkpt>
      <trkpt lat="45.31251" lon="6.14904">
        <ele>2329</ele>
        <time>2021-06-24T11:13:22.170Z</time>
      </trkpt>
      <trkpt lat="45.31231" lon="6.14859">
        <ele>2316</ele>
        <time>2021-06-24T11:14:26.529Z</time>
      </trkpt>
      <trkpt lat="45.31213" lon="6.14753">
        <ele>2299</ele>
        <time>2021-06-24T11:16:27.448Z</time>
      </trkpt>
      <trkpt lat="45.31203" lon="6.14729">
        <ele>2292</ele>
        <time>2021-06-24T11:16:59.085Z</time>
      </trkpt>
      <trkpt lat="45.31179" lon="6.14711">
        <ele>2288</ele>
        <time>2021-06-24T11:17:50.420Z</time>
      </trkpt>
      <trkpt lat="45.31155" lon="6.14671">
        <ele>2273</ele>
        <time>2021-06-24T11:19:07.922Z</time>
      </trkpt>
      <trkpt lat="45.31131" lon="6.14644">
        <ele>2266</ele>
        <time>2021-06-24T11:20:08.093Z</time>
      </trkpt>
      <trkpt lat="45.31115" lon="6.14605">
        <ele>2254</ele>
        <time>2021-06-24T11:21:03.345Z</time>
      </trkpt>
      <trkpt lat="45.31083" lon="6.14586">
        <ele>2248</ele>
        <time>2021-06-24T11:22:17.419Z</time>
      </trkpt>
      <trkpt lat="45.31069" lon="6.14568">
        <ele>2244</ele>
        <time>2021-06-24T11:22:57.243Z</time>
      </trkpt>
      <trkpt lat="45.31051" lon="6.14471">
        <ele>2213</ele>
        <time>2021-06-24T11:26:12.876Z</time>
      </trkpt>
      <trkpt lat="45.3104" lon="6.14449">
        <ele>2207</ele>
        <time>2021-06-24T11:26:58.853Z</time>
      </trkpt>
      <trkpt lat="45.31026" lon="6.14435">
        <ele>2198</ele>
        <time>2021-06-24T11:27:38.926Z</time>
      </trkpt>
      <trkpt lat="45.31012" lon="6.14437">
        <ele>2197</ele>
        <time>2021-06-24T11:28:19.046Z</time>
      </trkpt>
      <trkpt lat="45.31004" lon="6.1443">
        <ele>2192</ele>
        <time>2021-06-24T11:28:43.109Z</time>
      </trkpt>
      <trkpt lat="45.3102" lon="6.14382">
        <ele>2173</ele>
        <time>2021-06-24T11:30:46.506Z</time>
      </trkpt>
      <trkpt lat="45.31017" lon="6.14346">
        <ele>2160</ele>
        <time>2021-06-24T11:31:32.067Z</time>
      </trkpt>
      <trkpt lat="45.30993" lon="6.14269">
        <ele>2149</ele>
        <time>2021-06-24T11:32:51.850Z</time>
      </trkpt>
      <trkpt lat="45.3099" lon="6.14229">
        <ele>2145</ele>
        <time>2021-06-24T11:33:24.765Z</time>
      </trkpt>
      <trkpt lat="45.30979" lon="6.14202">
        <ele>2145</ele>
        <time>2021-06-24T11:33:50.162Z</time>
      </trkpt>
      <trkpt lat="45.30941" lon="6.14061">
        <ele>2137</ele>
        <time>2021-06-24T11:35:53.145Z</time>
      </trkpt>
      <trkpt lat="45.30945" lon="6.1401">
        <ele>2133</ele>
        <time>2021-06-24T11:36:33.373Z</time>
      </trkpt>
      <trkpt lat="45.30954" lon="6.13935">
        <ele>2132</ele>
        <time>2021-06-24T11:37:32.519Z</time>
      </trkpt>
      <trkpt lat="45.30962" lon="6.13918">
        <ele>2132</ele>
        <time>2021-06-24T11:37:48.699Z</time>
      </trkpt>
      <trkpt lat="45.30961" lon="6.13885">
        <ele>2132</ele>
        <time>2021-06-24T11:38:14.783Z</time>
      </trkpt>
      <trkpt lat="45.30948" lon="6.13835">
        <ele>2128</ele>
        <time>2021-06-24T11:38:57.582Z</time>
      </trkpt>
      <trkpt lat="45.30953" lon="6.13835">
        <ele>2128</ele>
        <time>2021-06-24T11:39:03.423Z</time>
      </trkpt>
      <trkpt lat="45.30958" lon="6.138">
        <ele>2127</ele>
        <time>2021-06-24T11:40:04.241Z</time>
      </trkpt>
      <trkpt lat="45.30967" lon="6.13772">
        <ele>2115</ele>
        <time>2021-06-24T11:41:04.245Z</time>
      </trkpt>
      <trkpt lat="45.3098" lon="6.1376">
        <ele>2104</ele>
        <time>2021-06-24T11:41:54.820Z</time>
      </trkpt>
      <trkpt lat="45.30993" lon="6.13737">
        <ele>2093</ele>
        <time>2021-06-24T11:43:01.419Z</time>
      </trkpt>
      <trkpt lat="45.31002" lon="6.13711">
        <ele>2088</ele>
        <time>2021-06-24T11:44:07.680Z</time>
      </trkpt>
      <trkpt lat="45.31037" lon="6.1367">
        <ele>2062</ele>
        <time>2021-06-24T11:46:41.312Z</time>
      </trkpt>
      <trkpt lat="45.31047" lon="6.13678">
        <ele>2053</ele>
        <time>2021-06-24T11:47:22.012Z</time>
      </trkpt>
      <trkpt lat="45.31059" lon="6.13665">
        <ele>2050</ele>
        <time>2021-06-24T11:48:02.795Z</time>
      </trkpt>
      <trkpt lat="45.31073" lon="6.13675">
        <ele>2041</ele>
        <time>2021-06-24T11:48:40.301Z</time>
      </trkpt>
      <trkpt lat="45.31099" lon="6.13649">
        <ele>2030</ele>
        <time>2021-06-24T11:50:26.814Z</time>
      </trkpt>
      <trkpt lat="45.31123" lon="6.13658">
        <ele>2012</ele>
        <time>2021-06-24T11:51:59.201Z</time>
      </trkpt>
      <trkpt lat="45.31122" lon="6.13674">
        <ele>2009</ele>
        <time>2021-06-24T11:52:40.785Z</time>
      </trkpt>
      <trkpt lat="45.3113" lon="6.1367">
        <ele>2003</ele>
        <time>2021-06-24T11:53:13.752Z</time>
      </trkpt>
      <trkpt lat="45.31134" lon="6.13679">
        <ele>1999</ele>
        <time>2021-06-24T11:53:39.061Z</time>
      </trkpt>
      <trkpt lat="45.31191" lon="6.13632">
        <ele>1963</ele>
        <time>2021-06-24T11:57:09.596Z</time>
      </trkpt>
      <trkpt lat="45.31214" lon="6.13589">
        <ele>1947</ele>
        <time>2021-06-24T11:58:30.119Z</time>
      </trkpt>
      <trkpt lat="45.31227" lon="6.13547">
        <ele>1940</ele>
        <time>2021-06-24T11:59:47.226Z</time>
      </trkpt>
      <trkpt lat="45.31233" lon="6.1355">
        <ele>1932</ele>
        <time>2021-06-24T12:00:03.391Z</time>
      </trkpt>
      <trkpt lat="45.31241" lon="6.13577">
        <ele>1925</ele>
        <time>2021-06-24T12:01:03.263Z</time>
      </trkpt>
      <trkpt lat="45.31252" lon="6.13581">
        <ele>1920</ele>
        <time>2021-06-24T12:01:31.536Z</time>
      </trkpt>
      <trkpt lat="45.31261" lon="6.13592">
        <ele>1917</ele>
        <time>2021-06-24T12:02:02.395Z</time>
      </trkpt>
      <trkpt lat="45.31273" lon="6.13573">
        <ele>1908</ele>
        <time>2021-06-24T12:02:43.506Z</time>
      </trkpt>
      <trkpt lat="45.31286" lon="6.13579">
        <ele>1903</ele>
        <time>2021-06-24T12:03:16.976Z</time>
      </trkpt>
      <trkpt lat="45.31296" lon="6.13594">
        <ele>1899</ele>
        <time>2021-06-24T12:03:50.799Z</time>
      </trkpt>
      <trkpt lat="45.313" lon="6.13615">
        <ele>1894</ele>
        <time>2021-06-24T12:04:23.547Z</time>
      </trkpt>
      <trkpt lat="45.31314" lon="6.13586">
        <ele>1884</ele>
        <time>2021-06-24T12:05:40.797Z</time>
      </trkpt>
      <trkpt lat="45.31337" lon="6.1359">
        <ele>1871</ele>
        <time>2021-06-24T12:07:06.989Z</time>
      </trkpt>
      <trkpt lat="45.31369" lon="6.1358">
        <ele>1851</ele>
        <time>2021-06-24T12:08:35.586Z</time>
      </trkpt>
      <trkpt lat="45.31368" lon="6.13593">
        <ele>1851</ele>
        <time>2021-06-24T12:09:00.719Z</time>
      </trkpt>
      <trkpt lat="45.31402" lon="6.13565">
        <ele>1837</ele>
        <time>2021-06-24T12:09:59.675Z</time>
      </trkpt>
      <trkpt lat="45.31417" lon="6.13549">
        <ele>1836</ele>
        <time>2021-06-24T12:10:24.481Z</time>
      </trkpt>
      <trkpt lat="45.31423" lon="6.13531">
        <ele>1836</ele>
        <time>2021-06-24T12:10:40.103Z</time>
      </trkpt>
      <trkpt lat="45.31402" lon="6.135">
        <ele>1834</ele>
        <time>2021-06-24T12:11:30.051Z</time>
      </trkpt>
      <trkpt lat="45.31408" lon="6.1349">
        <ele>1830</ele>
        <time>2021-06-24T12:11:44.972Z</time>
      </trkpt>
      <trkpt lat="45.31376" lon="6.1345">
        <ele>1816</ele>
        <time>2021-06-24T12:13:51.618Z</time>
      </trkpt>
      <trkpt lat="45.31362" lon="6.13385">
        <ele>1788</ele>
        <time>2021-06-24T12:16:06.580Z</time>
      </trkpt>
      <trkpt lat="45.31394" lon="6.13387">
        <ele>1781</ele>
        <time>2021-06-24T12:17:05.905Z</time>
      </trkpt>
      <trkpt lat="45.31373" lon="6.13343">
        <ele>1768</ele>
        <time>2021-06-24T12:18:27.299Z</time>
      </trkpt>
      <trkpt lat="45.31397" lon="6.13336">
        <ele>1760</ele>
        <time>2021-06-24T12:19:24.732Z</time>
      </trkpt>
      <trkpt lat="45.31391" lon="6.13318">
        <ele>1755</ele>
        <time>2021-06-24T12:19:57.032Z</time>
      </trkpt>
      <trkpt lat="45.31438" lon="6.13318">
        <ele>1737</ele>
        <time>2021-06-24T12:22:11.330Z</time>
      </trkpt>
      <trkpt lat="45.31442" lon="6.13303">
        <ele>1730</ele>
        <time>2021-06-24T12:22:43.078Z</time>
      </trkpt>
      <trkpt lat="45.31449" lon="6.13307">
        <ele>1728</ele>
        <time>2021-06-24T12:23:04.911Z</time>
      </trkpt>
      <trkpt lat="45.31463" lon="6.13283">
        <ele>1716</ele>
        <time>2021-06-24T12:24:07.749Z</time>
      </trkpt>
      <trkpt lat="45.3147" lon="6.13286">
        <ele>1712</ele>
        <time>2021-06-24T12:24:29.012Z</time>
      </trkpt>
      <trkpt lat="45.31486" lon="6.13252">
        <ele>1701</ele>
        <time>2021-06-24T12:25:26.871Z</time>
      </trkpt>
      <trkpt lat="45.31488" lon="6.13215">
        <ele>1695</ele>
        <time>2021-06-24T12:26:09.195Z</time>
      </trkpt>
      <trkpt lat="45.31497" lon="6.13188">
        <ele>1690</ele>
        <time>2021-06-24T12:26:44.010Z</time>
      </trkpt>
      <trkpt lat="45.31545" lon="6.13119">
        <ele>1673</ele>
        <time>2021-06-24T12:28:38.349Z</time>
      </trkpt>
      <trkpt lat="45.31588" lon="6.13122">
        <ele>1662</ele>
        <time>2021-06-24T12:29:34.059Z</time>
      </trkpt>
      <trkpt lat="45.31582" lon="6.13136">
        <ele>1662</ele>
        <time>2021-06-24T12:29:48.107Z</time>
      </trkpt>
      <trkpt lat="45.31569" lon="6.13149">
        <ele>1662</ele>
        <time>2021-06-24T12:30:05.732Z</time>
      </trkpt>
      <trkpt lat="45.31566" lon="6.13183">
        <ele>1663</ele>
        <time>2021-06-24T12:30:33.929Z</time>
      </trkpt>
      <trkpt lat="45.31601" lon="6.13185">
        <ele>1663</ele>
        <time>2021-06-24T12:31:20.276Z</time>
      </trkpt>
      <trkpt lat="45.31605" lon="6.13193">
        <ele>1663</ele>
        <time>2021-06-24T12:31:29.376Z</time>
      </trkpt>
      <trkpt lat="45.31729" lon="6.1321">
        <ele>1636</ele>
        <time>2021-06-24T12:34:31.978Z</time>
      </trkpt>
      <trkpt lat="45.31744" lon="6.13228">
        <ele>1636</ele>
        <time>2021-06-24T12:34:56.513Z</time>
      </trkpt>
      <trkpt lat="45.31741" lon="6.13244">
        <ele>1632</ele>
        <time>2021-06-24T12:35:09.870Z</time>
      </trkpt>
      <trkpt lat="45.31786" lon="6.13269">
        <ele>1631</ele>
        <time>2021-06-24T12:36:04.502Z</time>
      </trkpt>
      <trkpt lat="45.31817" lon="6.13328">
        <ele>1628</ele>
        <time>2021-06-24T12:37:11.248Z</time>
      </trkpt>
      <trkpt lat="45.31842" lon="6.1333">
        <ele>1619</ele>
        <time>2021-06-24T12:37:49.426Z</time>
      </trkpt>
      <trkpt lat="45.3185" lon="6.13338">
        <ele>1617</ele>
        <time>2021-06-24T12:38:05.160Z</time>
      </trkpt>
      <trkpt lat="45.31951" lon="6.13342">
        <ele>1598</ele>
        <time>2021-06-24T12:40:16.098Z</time>
      </trkpt>
      <trkpt lat="45.32013" lon="6.13359">
        <ele>1591</ele>
        <time>2021-06-24T12:42:02.910Z</time>
      </trkpt>
      <trkpt lat="45.32014" lon="6.13346">
        <ele>1580</ele>
        <time>2021-06-24T12:42:21.493Z</time>
      </trkpt>
      <trkpt lat="45.32005" lon="6.13332">
        <ele>1576</ele>
        <time>2021-06-24T12:43:10.000Z</time>
      </trkpt>
      <trkpt lat="45.32013" lon="6.13316">
        <ele>1566</ele>
        <time>2021-06-24T12:43:50.655Z</time>
      </trkpt>
      <trkpt lat="45.32001" lon="6.13313">
        <ele>1564</ele>
        <time>2021-06-24T12:44:29.794Z</time>
      </trkpt>
      <trkpt lat="45.32016" lon="6.13294">
        <ele>1553</ele>
        <time>2021-06-24T12:45:06.559Z</time>
      </trkpt>
      <trkpt lat="45.32017" lon="6.13283">
        <ele>1549</ele>
        <time>2021-06-24T12:45:21.570Z</time>
      </trkpt>
      <trkpt lat="45.31953" lon="6.13236">
        <ele>1534</ele>
        <time>2021-06-24T12:48:44.195Z</time>
      </trkpt>
      <trkpt lat="45.31949" lon="6.13215">
        <ele>1526</ele>
        <time>2021-06-24T12:49:27.641Z</time>
      </trkpt>
      <trkpt lat="45.31969" lon="6.13079">
        <ele>1468</ele>
        <time>2021-06-24T12:53:55.743Z</time>
      </trkpt>
      <trkpt lat="45.32004" lon="6.12934">
        <ele>1438</ele>
        <time>2021-06-24T12:56:56.417Z</time>
      </trkpt>
      <trkpt lat="45.32077" lon="6.12885">
        <ele>1421</ele>
        <time>2021-06-24T12:59:01.096Z</time>
      </trkpt>
      <trkpt lat="45.32159" lon="6.12867">
        <ele>1402</ele>
        <time>2021-06-24T13:01:29.805Z</time>
      </trkpt>
      <trkpt lat="45.32152" lon="6.12823">
        <ele>1389</ele>
        <time>2021-06-24T13:02:52.113Z</time>
      </trkpt>
      <trkpt lat="45.32178" lon="6.12795">
        <ele>1376</ele>
        <time>2021-06-24T13:03:49.808Z</time>
      </trkpt>
      <trkpt lat="45.32224" lon="6.12775">
        <ele>1367</ele>
        <time>2021-06-24T13:05:14.830Z</time>
      </trkpt>
      <trkpt lat="45.32297" lon="6.12678">
        <ele>1336</ele>
        <time>2021-06-24T13:08:39.840Z</time>
      </trkpt>
      <trkpt lat="45.32341" lon="6.12644">
        <ele>1319</ele>
        <time>2021-06-24T13:10:17.535Z</time>
      </trkpt>
      <trkpt lat="45.32387" lon="6.12641">
        <ele>1307</ele>
        <time>2021-06-24T13:11:30.600Z</time>
      </trkpt>
      <trkpt lat="45.3244" lon="6.12655">
        <ele>1296</ele>
        <time>2021-06-24T13:12:54.083Z</time>
      </trkpt>
      <trkpt lat="45.3248" lon="6.12648">
        <ele>1286</ele>
        <time>2021-06-24T13:14:04.562Z</time>
      </trkpt>
      <trkpt lat="45.32502" lon="6.12635">
        <ele>1279</ele>
        <time>2021-06-24T13:14:45.547Z</time>
      </trkpt>
      <trkpt lat="45.32501" lon="6.12617">
        <ele>1277</ele>
        <time>2021-06-24T13:15:08.209Z</time>
      </trkpt>
      <trkpt lat="45.32523" lon="6.12609">
        <ele>1270</ele>
        <time>2021-06-24T13:15:47.229Z</time>
      </trkpt>
      <trkpt lat="45.32532" lon="6.1259">
        <ele>1266</ele>
        <time>2021-06-24T13:16:14.805Z</time>
      </trkpt>
      <trkpt lat="45.32549" lon="6.12592">
        <ele>1263</ele>
        <time>2021-06-24T13:16:41.233Z</time>
      </trkpt>
      <trkpt lat="45.32565" lon="6.12575">
        <ele>1257</ele>
        <time>2021-06-24T13:17:13.804Z</time>
      </trkpt>
      <trkpt lat="45.3257" lon="6.12561">
        <ele>1255</ele>
        <time>2021-06-24T13:17:34.122Z</time>
      </trkpt>
      <trkpt lat="45.32585" lon="6.12561">
        <ele>1251</ele>
        <time>2021-06-24T13:17:57.944Z</time>
      </trkpt>
      <trkpt lat="45.32593" lon="6.12554">
        <ele>1248</ele>
        <time>2021-06-24T13:18:14.878Z</time>
      </trkpt>
      <trkpt lat="45.32605" lon="6.12554">
        <ele>1246</ele>
        <time>2021-06-24T13:18:33.648Z</time>
      </trkpt>
      <trkpt lat="45.32613" lon="6.12536">
        <ele>1242</ele>
        <time>2021-06-24T13:18:58.322Z</time>
      </trkpt>
      <trkpt lat="45.32652" lon="6.12516">
        <ele>1232</ele>
        <time>2021-06-24T13:20:03.775Z</time>
      </trkpt>
      <trkpt lat="45.32675" lon="6.12508">
        <ele>1227</ele>
        <time>2021-06-24T13:20:40.899Z</time>
      </trkpt>
      <trkpt lat="45.3269" lon="6.12488">
        <ele>1222</ele>
        <time>2021-06-24T13:21:12.879Z</time>
      </trkpt>
      <trkpt lat="45.32701" lon="6.12458">
        <ele>1217</ele>
        <time>2021-06-24T13:21:51.022Z</time>
      </trkpt>
      <trkpt lat="45.32748" lon="6.12419">
        <ele>1204</ele>
        <time>2021-06-24T13:23:16.260Z</time>
      </trkpt>
      <trkpt lat="45.32783" lon="6.12409">
        <ele>1197</ele>
        <time>2021-06-24T13:24:07.243Z</time>
      </trkpt>
      <trkpt lat="45.32793" lon="6.12393">
        <ele>1193</ele>
        <time>2021-06-24T13:24:29.466Z</time>
      </trkpt>
      <trkpt lat="45.32857" lon="6.12385">
        <ele>1181</ele>
        <time>2021-06-24T13:26:06.686Z</time>
      </trkpt>
      <trkpt lat="45.32907" lon="6.12304">
        <ele>1164</ele>
        <time>2021-06-24T13:28:02.566Z</time>
      </trkpt>
      <trkpt lat="45.32959" lon="6.12255">
        <ele>1151</ele>
        <time>2021-06-24T13:29:34.168Z</time>
      </trkpt>
      <trkpt lat="45.33025" lon="6.12178">
        <ele>1134</ele>
        <time>2021-06-24T13:31:36.244Z</time>
      </trkpt>
      <trkpt lat="45.33075" lon="6.12155">
        <ele>1125</ele>
        <time>2021-06-24T13:32:43.736Z</time>
      </trkpt>
      <trkpt lat="45.33097" lon="6.12157">
        <ele>1122</ele>
        <time>2021-06-24T13:33:11.065Z</time>
      </trkpt>
      <trkpt lat="45.33112" lon="6.12154">
        <ele>1120</ele>
        <time>2021-06-24T13:33:28.748Z</time>
      </trkpt>
      <trkpt lat="45.33125" lon="6.12163">
        <ele>1119</ele>
        <time>2021-06-24T13:33:45.972Z</time>
      </trkpt>
      <trkpt lat="45.33146" lon="6.12144">
        <ele>1117</ele>
        <time>2021-06-24T13:34:13.590Z</time>
      </trkpt>
      <trkpt lat="45.33177" lon="6.12147">
        <ele>1117</ele>
        <time>2021-06-24T13:34:47.425Z</time>
      </trkpt>
      <trkpt lat="45.3322" lon="6.12141">
        <ele>1116</ele>
        <time>2021-06-24T13:35:39.069Z</time>
      </trkpt>
      <trkpt lat="45.33313" lon="6.12061">
        <ele>1102</ele>
        <time>2021-06-24T13:37:40.068Z</time>
      </trkpt>
      <trkpt lat="45.33439" lon="6.11985">
        <ele>1102</ele>
        <time>2021-06-24T13:40:12.096Z</time>
      </trkpt>
      <trkpt lat="45.3346" lon="6.11985">
        <ele>1102</ele>
        <time>2021-06-24T13:40:35.633Z</time>
      </trkpt>
      <trkpt lat="45.33475" lon="6.12019">
        <ele>1102</ele>
        <time>2021-06-24T13:41:06.757Z</time>
      </trkpt>
      <trkpt lat="45.33491" lon="6.12026">
        <ele>1102</ele>
        <time>2021-06-24T13:41:25.461Z</time>
      </trkpt>
      <trkpt lat="45.33507" lon="6.11989">
        <ele>1098</ele>
        <time>2021-06-24T13:42:00.403Z</time>
      </trkpt>
      <trkpt lat="45.33526" lon="6.11966">
        <ele>1098</ele>
        <time>2021-06-24T13:42:29.919Z</time>
      </trkpt>
      <trkpt lat="45.33541" lon="6.11957">
        <ele>1097</ele>
        <time>2021-06-24T13:42:47.741Z</time>
      </trkpt>
      <trkpt lat="45.33547" lon="6.11966">
        <ele>1100</ele>
        <time>2021-06-24T13:42:59.037Z</time>
      </trkpt>
    </trkseg>
  </trk>
</gpx>